Time;durP1;ratioP1;P1;durP2;ratioP2;P2;SDS_P1;SDS_P2;PMS_P1;PMS_P2;Temp;Humidity;BMP_temperature;BMP_pressure;BME280_temperature;BME280_humidity;BME280_pressure;Samples;Min_cycle;Max_cycle;Signal;HPM_P1;HPM_P2
2021/01/22 00:01:37;;;;;;;1.48;0.85;;;;;;;;;;5045687;28;20021;-46
2021/01/22 00:04:03;;;;;;;2.70;1.08;;;;;;;;;;5045821;28;20055;-48
2021/01/22 00:06:29;;;;;;;2.17;1.10;;;;;;;;;;5046297;28;20044;-49
2021/01/22 00:08:55;;;;;;;7.65;1.70;;;;;;;;;;5044676;28;20061;-46
2021/01/22 00:11:21;;;;;;;2.42;1.50;;;;;;;;;;5044872;28;20582;-48
2021/01/22 00:13:47;;;;;;;1.73;1.30;;;;;;;;;;5037570;28;20048;-46
2021/01/22 00:16:13;;;;;;;4.68;1.55;;;;;;;;;;5033649;28;20469;-48
2021/01/22 00:18:39;;;;;;;7.53;3.55;;;;;;;;;;5045274;28;20081;-49
2021/01/22 00:21:05;;;;;;;2.55;1.40;;;;;;;;;;5046013;28;20509;-47
2021/01/22 00:23:31;;;;;;;2.00;1.20;;;;;;;;;;5046088;28;20030;-46
2021/01/22 00:25:57;;;;;;;1.73;1.30;;;;;;;;;;5045970;28;20419;-46
2021/01/22 00:28:23;;;;;;;4.85;1.35;;;;;;;;;;5045768;28;20579;-50
2021/01/22 00:30:49;;;;;;;3.10;1.38;;;;;;;;;;5044627;28;20594;-46
2021/01/22 00:33:15;;;;;;;3.30;1.85;;;;;;;;;;5047269;28;20025;-47
2021/01/22 00:35:41;;;;;;;2.90;1.67;;;;;;;;;;5053247;28;20609;-46
2021/01/22 00:38:07;;;;;;;2.70;1.33;;;;;;;;;;5045764;28;20025;-50
2021/01/22 00:40:33;;;;;;;2.28;1.42;;;;;;;;;;5044768;28;20029;-45
2021/01/22 00:43:01;;;;;;;3.40;1.70;;;;;;;;;;5045798;28;20017;-48
2021/01/22 00:45:27;;;;;;;2.63;1.73;;;;;;;;;;5036400;28;20036;-50
2021/01/22 00:47:52;;;;;;;3.72;1.45;;;;;;;;;;5045600;28;20149;-53
2021/01/22 00:50:18;;;;;;;2.17;1.50;;;;;;;;;;5045203;28;20029;-48
2021/01/22 00:52:44;;;;;;;2.25;1.20;;;;;;;;;;5045614;28;20055;-49
2021/01/22 00:55:10;;;;;;;3.20;1.45;;;;;;;;;;5045721;28;20027;-46
2021/01/22 00:57:36;;;;;;;5.15;2.38;;;;;;;;;;5045546;28;20032;-47
2021/01/22 01:00:04;;;;;;;3.03;1.75;;;;;;;;;;5044683;28;20384;-47
2021/01/22 01:02:30;;;;;;;3.35;1.48;;;;;;;;;;5044857;28;20032;-49
2021/01/22 01:04:56;;;;;;;1.50;1.02;;;;;;;;;;5045362;28;20465;-46
2021/01/22 01:07:22;;;;;;;2.00;1.00;;;;;;;;;;5045325;28;20029;-46
2021/01/22 01:09:48;;;;;;;3.47;1.15;;;;;;;;;;5045449;28;20060;-47
2021/01/22 01:12:14;;;;;;;1.50;1.00;;;;;;;;;;5044678;28;20032;-48
2021/01/22 01:14:40;;;;;;;2.33;0.90;;;;;;;;;;5041508;28;20044;-47
2021/01/22 01:17:06;;;;;;;2.97;1.25;;;;;;;;;;5045024;28;20043;-46
2021/01/22 01:19:32;;;;;;;1.92;1.15;;;;;;;;;;5046531;28;20591;-46
2021/01/22 01:21:58;;;;;;;1.90;1.10;;;;;;;;;;5048562;28;20417;-47
2021/01/22 01:24:23;;;;;;;4.78;1.30;;;;;;;;;;5046465;28;20392;-48
2021/01/22 01:26:49;;;;;;;1.10;0.90;;;;;;;;;;5048405;28;20576;-49
2021/01/22 01:29:15;;;;;;;2.28;0.98;;;;;;;;;;5048161;28;20028;-46
2021/01/22 01:31:41;;;;;;;2.40;0.90;;;;;;;;;;5048558;28;20419;-48
2021/01/22 01:34:07;;;;;;;2.83;0.82;;;;;;;;;;5047732;28;20048;-46
2021/01/22 01:36:33;;;;;;;2.55;0.88;;;;;;;;;;5048621;28;20066;-47
2021/01/22 01:39:00;;;;;;;1.10;0.70;;;;;;;;;;5048530;28;20031;-48
2021/01/22 01:41:25;;;;;;;1.17;0.70;;;;;;;;;;5048332;28;20112;-46
2021/01/22 01:43:51;;;;;;;1.88;0.85;;;;;;;;;;5042473;28;20021;-46
2021/01/22 01:46:17;;;;;;;1.60;0.80;;;;;;;;;;5028270;28;20029;-46
2021/01/22 01:48:44;;;;;;;2.03;0.80;;;;;;;;;;5043005;28;20031;-46
2021/01/22 01:51:09;;;;;;;1.38;0.70;;;;;;;;;;5048233;28;20058;-48
2021/01/22 01:53:35;;;;;;;2.10;1.00;;;;;;;;;;5047925;28;20029;-47
2021/01/22 01:56:01;;;;;;;2.10;0.90;;;;;;;;;;5048461;28;20028;-48
2021/01/22 01:58:27;;;;;;;2.90;1.13;;;;;;;;;;5044361;28;20060;-46
2021/01/22 02:00:54;;;;;;;2.40;0.73;;;;;;;;;;5047617;28;20032;-46
2021/01/22 02:03:20;;;;;;;1.00;0.60;;;;;;;;;;5047729;28;20041;-46
2021/01/22 02:05:47;;;;;;;0.85;0.50;;;;;;;;;;5036594;28;20504;-48
2021/01/22 02:08:14;;;;;;;2.00;0.75;;;;;;;;;;5028143;28;20578;-46
2021/01/22 02:10:40;;;;;;;1.23;0.50;;;;;;;;;;5038630;28;20733;-46
2021/01/22 02:13:06;;;;;;;2.40;0.70;;;;;;;;;;5047941;28;20029;-46
2021/01/22 02:15:33;;;;;;;1.27;0.52;;;;;;;;;;5037094;28;20078;-46
2021/01/22 02:17:59;;;;;;;0.88;0.70;;;;;;;;;;5047639;28;20078;-47
2021/01/22 02:20:39;;;;;;;1.00;0.70;;;;;;;;;;5047814;28;20037;-47
2021/01/22 02:23:05;;;;;;;0.52;0.43;;;;;;;;;;5047757;28;20358;-46
2021/01/22 02:25:40;;;;;;;0.50;0.50;;;;;;;;;;5047655;28;20537;-50
2021/01/22 02:28:08;;;;;;;1.85;0.55;;;;;;;;;;5047018;28;20036;-46
2021/01/22 02:30:34;;;;;;;2.30;0.60;;;;;;;;;;5046322;28;20043;-46
2021/01/22 02:33:01;;;;;;;2.22;0.57;;;;;;;;;;5047217;28;20368;-47
2021/01/22 02:35:27;;;;;;;2.85;0.60;;;;;;;;;;5065628;28;20025;-46
2021/01/22 02:37:54;;;;;;;3.45;0.50;;;;;;;;;;5046999;28;20189;-47
2021/01/22 02:40:21;;;;;;;3.05;0.75;;;;;;;;;;5047508;28;20029;-46
2021/01/22 02:42:49;;;;;;;1.40;0.52;;;;;;;;;;5044873;28;20055;-46
2021/01/22 02:45:16;;;;;;;1.33;0.70;;;;;;;;;;5029897;28;20064;-46
2021/01/22 02:47:49;;;;;;;0.75;0.60;;;;;;;;;;5041247;28;20036;-49
2021/01/22 02:50:31;;;;;;;0.30;0.30;;;;;;;;;;5046841;28;20064;-46
2021/01/22 02:53:01;;;;;;;3.03;0.70;;;;;;;;;;5046811;28;20143;-48
2021/01/22 02:55:27;;;;;;;1.55;0.50;;;;;;;;;;5046186;28;20027;-50
2021/01/22 02:57:58;;;;;;;2.50;0.43;;;;;;;;;;5041703;28;20060;-48
2021/01/22 03:00:26;;;;;;;0.90;0.40;;;;;;;;;;5028235;28;20108;-47
2021/01/22 03:03:11;;;;;;;1.05;0.60;;;;;;;;;;5045999;28;20051;-48
2021/01/22 03:05:38;;;;;;;3.53;0.60;;;;;;;;;;5046549;28;20118;-46
2021/01/22 03:08:07;;;;;;;1.23;0.60;;;;;;;;;;5046410;28;20119;-46
2021/01/22 03:10:35;;;;;;;1.85;0.60;;;;;;;;;;5046616;28;20392;-46
2021/01/22 03:13:02;;;;;;;1.80;0.70;;;;;;;;;;5046646;28;20017;-48
2021/01/22 03:15:28;;;;;;;1.05;0.35;;;;;;;;;;5045681;28;20029;-46
2021/01/22 03:18:13;;;;;;;0.63;0.50;;;;;;;;;;5046821;28;20125;-47
2021/01/22 03:20:39;;;;;;;0.80;0.60;;;;;;;;;;5045946;28;20598;-48
2021/01/22 03:23:05;;;;;;;1.08;0.60;;;;;;;;;;5046685;28;20123;-48
2021/01/22 03:25:31;;;;;;;0.50;0.40;;;;;;;;;;5046085;28;20044;-48
2021/01/22 03:27:57;;;;;;;0.98;0.60;;;;;;;;;;5046159;28;20132;-46
2021/01/22 03:30:23;;;;;;;1.05;0.70;;;;;;;;;;5045865;28;20083;-46
2021/01/22 03:32:49;;;;;;;1.10;0.60;;;;;;;;;;5043415;28;20115;-47
2021/01/22 03:35:15;;;;;;;2.10;0.70;;;;;;;;;;5051214;28;20024;-49
2021/01/22 03:37:41;;;;;;;0.80;0.65;;;;;;;;;;5046415;28;20483;-47
2021/01/22 03:40:07;;;;;;;1.33;0.65;;;;;;;;;;5046066;28;20029;-47
2021/01/22 03:42:33;;;;;;;1.73;0.90;;;;;;;;;;5046332;28;20039;-46
2021/01/22 03:44:59;;;;;;;2.13;0.70;;;;;;;;;;5045454;28;20384;-48
2021/01/22 03:47:25;;;;;;;1.05;0.70;;;;;;;;;;5034604;28;20056;-50
2021/01/22 03:49:51;;;;;;;1.25;0.60;;;;;;;;;;5046027;28;20404;-50
2021/01/22 03:52:17;;;;;;;2.45;0.80;;;;;;;;;;5045991;28;20542;-46
2021/01/22 03:54:43;;;;;;;1.50;0.60;;;;;;;;;;5046073;28;20083;-46
2021/01/22 03:57:09;;;;;;;1.25;0.60;;;;;;;;;;5046059;28;20036;-48
2021/01/22 03:59:35;;;;;;;0.95;0.52;;;;;;;;;;5041926;28;20032;-49
2021/01/22 04:02:01;;;;;;;1.15;0.70;;;;;;;;;;5041781;28;20042;-47
2021/01/22 04:04:27;;;;;;;1.15;0.60;;;;;;;;;;5046000;28;20056;-46
2021/01/22 04:06:53;;;;;;;0.93;0.73;;;;;;;;;;5045638;28;20032;-46
2021/01/22 04:09:19;;;;;;;1.75;0.55;;;;;;;;;;5045336;28;20118;-51
2021/01/22 04:11:45;;;;;;;0.68;0.40;;;;;;;;;;5045805;28;20040;-47
2021/01/22 04:14:11;;;;;;;2.78;0.63;;;;;;;;;;5045358;28;20115;-48
2021/01/22 04:16:37;;;;;;;1.35;0.70;;;;;;;;;;5041601;28;21844;-46
2021/01/22 04:19:03;;;;;;;1.08;0.65;;;;;;;;;;5033282;28;20028;-46
2021/01/22 04:21:29;;;;;;;1.52;0.85;;;;;;;;;;5030611;28;20085;-46
2021/01/22 04:23:55;;;;;;;0.63;0.45;;;;;;;;;;5045324;28;20644;-47
2021/01/22 04:26:21;;;;;;;1.63;0.60;;;;;;;;;;5045780;28;20036;-47
2021/01/22 04:28:47;;;;;;;0.70;0.60;;;;;;;;;;5045100;28;20021;-50
2021/01/22 04:31:13;;;;;;;1.13;0.60;;;;;;;;;;5044590;28;20021;-48
2021/01/22 04:33:38;;;;;;;0.85;0.63;;;;;;;;;;5039348;28;20457;-46
2021/01/22 04:36:06;;;;;;;1.17;0.60;;;;;;;;;;5025965;28;20065;-47
2021/01/22 04:38:32;;;;;;;0.85;0.65;;;;;;;;;;5035586;28;20100;-47
2021/01/22 04:40:58;;;;;;;0.93;0.70;;;;;;;;;;5045422;28;20029;-46
2021/01/22 04:43:24;;;;;;;0.80;0.60;;;;;;;;;;5044925;28;20032;-46
2021/01/22 04:45:50;;;;;;;1.33;0.80;;;;;;;;;;5042566;28;20025;-46
2021/01/22 04:48:16;;;;;;;1.60;0.60;;;;;;;;;;5029158;28;20025;-46
2021/01/22 04:50:42;;;;;;;5.55;0.80;;;;;;;;;;5044948;28;20040;-46
2021/01/22 04:53:10;;;;;;;0.75;0.47;;;;;;;;;;5044997;28;20021;-49
2021/01/22 04:55:37;;;;;;;1.00;0.65;;;;;;;;;;5048760;28;20036;-46
2021/01/22 04:58:03;;;;;;;1.05;0.68;;;;;;;;;;5049585;28;20079;-46
2021/01/22 05:00:30;;;;;;;1.67;0.85;;;;;;;;;;5047125;28;20033;-46
2021/01/22 05:02:56;;;;;;;0.75;0.43;;;;;;;;;;5041124;28;20030;-48
2021/01/22 05:05:22;;;;;;;0.47;0.45;;;;;;;;;;5044901;28;20094;-47
2021/01/22 05:07:48;;;;;;;1.25;0.70;;;;;;;;;;5048813;28;20039;-46
2021/01/22 05:10:15;;;;;;;1.10;0.70;;;;;;;;;;5048539;28;20608;-48
2021/01/22 05:12:42;;;;;;;1.45;0.70;;;;;;;;;;5048378;28;20021;-46
2021/01/22 05:15:12;;;;;;;1.00;0.70;;;;;;;;;;5048795;28;20650;-47
2021/01/22 05:17:52;;;;;;;0.90;0.70;;;;;;;;;;5048873;28;20439;-46
2021/01/22 05:20:25;;;;;;;1.30;0.70;;;;;;;;;;5048340;28;20047;-46
2021/01/22 05:22:51;;;;;;;1.15;0.73;;;;;;;;;;5046413;28;20037;-51
2021/01/22 05:25:17;;;;;;;0.80;0.50;;;;;;;;;;5041877;28;20130;-46
2021/01/22 05:27:50;;;;;;;1.65;0.70;;;;;;;;;;5048403;28;20033;-47
2021/01/22 05:30:17;;;;;;;1.27;0.73;;;;;;;;;;5030592;28;20022;-48
2021/01/22 05:32:43;;;;;;;2.33;0.52;;;;;;;;;;5048106;28;20477;-46
2021/01/22 05:35:09;;;;;;;1.55;0.75;;;;;;;;;;5033514;28;20022;-46
2021/01/22 05:37:49;;;;;;;2.38;0.52;;;;;;;;;;5046925;28;20070;-48
2021/01/22 05:40:15;;;;;;;0.70;0.55;;;;;;;;;;5045757;28;20040;-47
2021/01/22 05:42:48;;;;;;;1.17;0.65;;;;;;;;;;5049536;28;20032;-50
2021/01/22 05:45:15;;;;;;;1.40;0.73;;;;;;;;;;5047877;28;20086;-49
2021/01/22 05:47:41;;;;;;;6.05;0.85;;;;;;;;;;5047836;28;20037;-49
2021/01/22 05:50:08;;;;;;;1.40;0.70;;;;;;;;;;5047367;28;20083;-49
2021/01/22 05:52:34;;;;;;;1.63;0.73;;;;;;;;;;5039178;28;20108;-50
2021/01/22 05:55:18;;;;;;;1.30;0.50;;;;;;;;;;5033772;28;20029;-49
2021/01/22 05:57:43;;;;;;;1.23;0.63;;;;;;;;;;5046057;28;20021;-51
2021/01/22 06:00:10;;;;;;;0.95;0.60;;;;;;;;;;5047661;28;20048;-51
2021/01/22 06:02:36;;;;;;;1.48;0.73;;;;;;;;;;5046947;28;20033;-50
2021/01/22 06:05:06;;;;;;;2.03;0.82;;;;;;;;;;5037924;28;20045;-50
2021/01/22 06:07:32;;;;;;;2.95;0.80;;;;;;;;;;5031508;28;20528;-54
2021/01/22 06:09:59;;;;;;;1.80;0.60;;;;;;;;;;5041482;28;20048;-55
2021/01/22 06:12:25;;;;;;;1.00;0.60;;;;;;;;;;5048429;28;20457;-51
2021/01/22 06:14:51;;;;;;;2.83;0.70;;;;;;;;;;5047184;28;20029;-49
2021/01/22 06:17:18;;;;;;;1.00;0.60;;;;;;;;;;5042217;28;20424;-50
2021/01/22 06:19:45;;;;;;;1.25;0.50;;;;;;;;;;5043129;28;20369;-51
2021/01/22 06:22:21;;;;;;;1.08;0.68;;;;;;;;;;5050016;28;20044;-49
2021/01/22 06:24:48;;;;;;;3.30;0.70;;;;;;;;;;5049737;28;20029;-48
2021/01/22 06:27:14;;;;;;;0.75;0.52;;;;;;;;;;5050073;28;20033;-51
2021/01/22 06:29:42;;;;;;;1.35;0.60;;;;;;;;;;5050281;28;20037;-55
2021/01/22 06:32:08;;;;;;;1.33;0.68;;;;;;;;;;5049463;28;20029;-51
2021/01/22 06:34:34;;;;;;;1.90;0.77;;;;;;;;;;5049656;28;20090;-55
2021/01/22 06:37:01;;;;;;;1.38;0.60;;;;;;;;;;5040976;28;20091;-51
2021/01/22 06:39:27;;;;;;;1.35;0.60;;;;;;;;;;5050395;28;20037;-52
2021/01/22 06:41:54;;;;;;;0.52;0.47;;;;;;;;;;5049267;28;20048;-50
2021/01/22 06:44:20;;;;;;;0.60;0.50;;;;;;;;;;5049173;28;20033;-52
2021/01/22 06:46:46;;;;;;;1.00;0.60;;;;;;;;;;5048667;28;20044;-53
2021/01/22 06:49:12;;;;;;;1.98;0.60;;;;;;;;;;5041247;28;20063;-52
2021/01/22 06:51:38;;;;;;;2.45;0.60;;;;;;;;;;5050578;28;20063;-54
2021/01/22 06:54:11;;;;;;;1.20;0.60;;;;;;;;;;5029338;28;20049;-56
2021/01/22 06:56:38;;;;;;;3.28;0.60;;;;;;;;;;5043980;28;20029;-52
2021/01/22 06:59:20;;;;;;;1.80;0.65;;;;;;;;;;5047761;28;20025;-52
2021/01/22 07:01:46;;;;;;;1.15;0.60;;;;;;;;;;5046760;28;20029;-52
2021/01/22 07:04:44;;;;;;;2.05;0.70;;;;;;;;;;5048492;28;20041;-52
2021/01/22 07:07:10;;;;;;;1.98;0.57;;;;;;;;;;4997159;28;20049;-54
2021/01/22 07:09:43;;;;;;;1.17;0.60;;;;;;;;;;5042896;28;20079;-52
2021/01/22 07:12:09;;;;;;;1.75;0.68;;;;;;;;;;5043027;28;20033;-52
2021/01/22 07:14:39;;;;;;;2.45;0.73;;;;;;;;;;5047922;28;20033;-54
2021/01/22 07:17:19;;;;;;;1.75;0.70;;;;;;;;;;5046849;28;20025;-49
2021/01/22 07:20:01;;;;;;;1.30;0.80;;;;;;;;;;5045003;28;20754;-50
2021/01/22 07:22:28;;;;;;;1.42;0.60;;;;;;;;;;5047923;28;20055;-50
2021/01/22 07:24:57;;;;;;;1.13;0.60;;;;;;;;;;5048700;28;20041;-50
2021/01/22 07:27:23;;;;;;;0.70;0.50;;;;;;;;;;5046910;28;20040;-53
2021/01/22 07:30:09;;;;;;;1.30;0.60;;;;;;;;;;5046478;28;20036;-54
2021/01/22 07:32:35;;;;;;;1.10;0.60;;;;;;;;;;5047254;28;20349;-54
2021/01/22 07:35:01;;;;;;;0.80;0.70;;;;;;;;;;5048287;28;20033;-50
2021/01/22 07:37:35;;;;;;;1.73;0.68;;;;;;;;;;5046497;28;20558;-50
2021/01/22 07:40:01;;;;;;;;;;;;;;;;;;5043008;28;20095;-49
2021/01/22 07:42:28;;;;;;;0.90;0.63;;;;;;;;;;5046256;28;19916;-54
2021/01/22 07:44:54;;;;;;;1.27;0.77;;;;;;;;;;5043473;28;20250;-55
2021/01/22 07:47:24;;;;;;;1.52;0.80;;;;;;;;;;5046239;28;20040;-50
2021/01/22 07:50:10;;;;;;;3.03;0.85;;;;;;;;;;5053954;28;20567;-52
2021/01/22 07:52:36;;;;;;;0.98;0.63;;;;;;;;;;5051367;28;20086;-52
2021/01/22 07:55:03;;;;;;;1.85;0.85;;;;;;;;;;5037565;28;20025;-52
2021/01/22 07:57:29;;;;;;;2.55;0.68;;;;;;;;;;5040537;28;20078;-52
2021/01/22 07:59:57;;;;;;;1.83;0.60;;;;;;;;;;5048183;28;20033;-51
2021/01/22 08:02:24;;;;;;;2.92;0.80;;;;;;;;;;5046842;28;20037;-49
2021/01/22 08:04:57;;;;;;;3.38;0.60;;;;;;;;;;5046040;28;20064;-52
2021/01/22 08:07:38;;;;;;;1.42;0.80;;;;;;;;;;5041522;28;20071;-51
2021/01/22 08:10:13;;;;;;;2.88;0.80;;;;;;;;;;5048355;28;20344;-51
2021/01/22 08:12:54;;;;;;;1.67;0.98;;;;;;;;;;5042835;28;20022;-52
2021/01/22 08:15:20;;;;;;;1.48;0.63;;;;;;;;;;5047489;28;20025;-54
2021/01/22 08:17:47;;;;;;;1.23;0.68;;;;;;;;;;5047551;28;20036;-55
2021/01/22 08:20:13;;;;;;;1.98;0.73;;;;;;;;;;5045830;28;20032;-52
2021/01/22 08:22:39;;;;;;;4.53;0.80;;;;;;;;;;5047660;28;20143;-52
2021/01/22 08:25:06;;;;;;;1.25;1.00;;;;;;;;;;5047991;28;20108;-50
2021/01/22 08:27:32;;;;;;;1.35;0.77;;;;;;;;;;5037045;28;20049;-51
2021/01/22 08:29:58;;;;;;;1.83;0.40;;;;;;;;;;5036776;28;20052;-53
2021/01/22 08:32:24;;;;;;;0.45;0.40;;;;;;;;;;5045577;28;20032;-53
2021/01/22 08:34:50;;;;;;;1.17;0.45;;;;;;;;;;5050401;28;20518;-54
2021/01/22 08:37:17;;;;;;;0.88;0.40;;;;;;;;;;5047776;28;20021;-52
2021/01/22 08:39:55;;;;;;;0.30;0.30;;;;;;;;;;5044798;28;20039;-52
2021/01/22 08:42:22;;;;;;;0.63;0.30;;;;;;;;;;5043350;28;20033;-53
2021/01/22 08:44:58;;;;;;;0.82;0.35;;;;;;;;;;5044611;28;20440;-53
2021/01/22 08:47:25;;;;;;;0.63;0.30;;;;;;;;;;5045763;28;20029;-54
2021/01/22 08:49:54;;;;;;;1.45;0.40;;;;;;;;;;5043529;28;20032;-51
2021/01/22 08:52:21;;;;;;;1.95;0.30;;;;;;;;;;5025320;28;20029;-48
2021/01/22 08:54:49;;;;;;;0.60;0.30;;;;;;;;;;5032829;28;20029;-51
2021/01/22 08:57:15;;;;;;;0.38;0.38;;;;;;;;;;5027829;28;20108;-52
2021/01/22 08:59:48;;;;;;;0.55;0.30;;;;;;;;;;5042192;28;20044;-50
2021/01/22 09:02:14;;;;;;;0.20;0.20;;;;;;;;;;5034756;28;20037;-54
2021/01/22 09:04:40;;;;;;;0.75;0.32;;;;;;;;;;5046343;28;20072;-53
2021/01/22 09:07:16;;;;;;;1.17;0.32;;;;;;;;;;5045993;28;20086;-50
2021/01/22 09:09:43;;;;;;;2.83;0.30;;;;;;;;;;5043227;28;20447;-51
2021/01/22 09:12:26;;;;;;;1.05;0.38;;;;;;;;;;5046871;28;20066;-52
2021/01/22 09:14:53;;;;;;;0.25;0.22;;;;;;;;;;5047301;28;20032;-51
2021/01/22 09:17:24;;;;;;;1.85;0.30;;;;;;;;;;5040087;28;20326;-54
2021/01/22 09:19:55;;;;;;;0.60;0.35;;;;;;;;;;5047245;28;20087;-52
2021/01/22 09:22:24;;;;;;;1.63;0.32;;;;;;;;;;5040711;28;20037;-50
2021/01/22 09:24:50;;;;;;;0.40;0.30;;;;;;;;;;5047112;28;20020;-52
2021/01/22 09:27:16;;;;;;;0.65;0.28;;;;;;;;;;5046294;28;20025;-51
2021/01/22 09:29:42;;;;;;;0.50;0.50;;;;;;;;;;5047205;28;20408;-49
2021/01/22 09:32:08;;;;;;;0.38;0.30;;;;;;;;;;5040738;28;20029;-52
2021/01/22 09:34:34;;;;;;;0.50;0.30;;;;;;;;;;5050241;28;20033;-52
2021/01/22 09:37:01;;;;;;;0.20;0.20;;;;;;;;;;5043781;28;20028;-54
2021/01/22 09:39:27;;;;;;;0.80;0.30;;;;;;;;;;5047204;28;20031;-50
2021/01/22 09:41:53;;;;;;;2.35;0.40;;;;;;;;;;5042664;28;20162;-50
2021/01/22 09:44:19;;;;;;;0.88;0.30;;;;;;;;;;5050408;28;20028;-53
2021/01/22 09:46:45;;;;;;;0.20;0.20;;;;;;;;;;5050710;28;20496;-51
2021/01/22 09:49:11;;;;;;;0.40;0.30;;;;;;;;;;5049409;28;20392;-53
2021/01/22 09:51:37;;;;;;;0.20;0.20;;;;;;;;;;5049187;28;20075;-52
2021/01/22 09:54:03;;;;;;;0.28;0.20;;;;;;;;;;5050020;28;20032;-51
2021/01/22 09:56:29;;;;;;;0.47;0.30;;;;;;;;;;5049903;28;20017;-50
2021/01/22 09:58:55;;;;;;;2.00;0.38;;;;;;;;;;5050836;28;20029;-54
2021/01/22 10:01:21;;;;;;;0.47;0.32;;;;;;;;;;5042877;28;20079;-49
2021/01/22 10:03:47;;;;;;;0.20;0.20;;;;;;;;;;5046863;28;20098;-51
2021/01/22 10:06:14;;;;;;;0.30;0.20;;;;;;;;;;5050922;28;20037;-50
2021/01/22 10:08:40;;;;;;;0.20;0.20;;;;;;;;;;5049596;28;20033;-51
2021/01/22 10:11:06;;;;;;;0.28;0.28;;;;;;;;;;5050125;28;20369;-53
2021/01/22 10:13:32;;;;;;;0.15;0.15;;;;;;;;;;5050359;28;20025;-54
2021/01/22 10:15:59;;;;;;;0.32;0.30;;;;;;;;;;5048149;28;20028;-54
2021/01/22 10:18:25;;;;;;;0.20;0.20;;;;;;;;;;5042030;28;20017;-52
2021/01/22 10:20:51;;;;;;;1.67;0.70;;;;;;;;;;5048451;28;20037;-55
2021/01/22 10:23:17;;;;;;;0.17;0.17;;;;;;;;;;5050851;28;20041;-49
2021/01/22 10:25:43;;;;;;;0.65;0.30;;;;;;;;;;5035605;28;20032;-53
2021/01/22 10:28:09;;;;;;;0.50;0.20;;;;;;;;;;5045778;28;20037;-52
2021/01/22 10:30:35;;;;;;;0.20;0.20;;;;;;;;;;5049130;28;20025;-53
2021/01/22 10:33:01;;;;;;;0.52;0.20;;;;;;;;;;5035953;28;20107;-53
2021/01/22 10:35:27;;;;;;;0.35;0.20;;;;;;;;;;5047916;28;20025;-54
2021/01/22 10:37:53;;;;;;;0.43;0.22;;;;;;;;;;5033860;28;20032;-56
2021/01/22 10:40:19;;;;;;;0.50;0.30;;;;;;;;;;5049672;28;20025;-54
2021/01/22 10:42:45;;;;;;;0.20;0.20;;;;;;;;;;5046951;28;20479;-49
2021/01/22 10:45:11;;;;;;;0.20;0.20;;;;;;;;;;5048927;28;20040;-53
2021/01/22 10:47:37;;;;;;;2.83;0.77;;;;;;;;;;5040053;28;20056;-54
2021/01/22 10:50:04;;;;;;;0.77;0.40;;;;;;;;;;5039476;28;20037;-55
2021/01/22 10:52:30;;;;;;;0.30;0.30;;;;;;;;;;5046996;28;20078;-54
2021/01/22 10:54:56;;;;;;;0.88;0.30;;;;;;;;;;5045316;28;20063;-54
2021/01/22 10:57:22;;;;;;;1.77;0.32;;;;;;;;;;5049399;28;20064;-50
2021/01/22 10:59:48;;;;;;;0.50;0.40;;;;;;;;;;5045384;28;20036;-51
2021/01/22 11:02:14;;;;;;;0.95;0.50;;;;;;;;;;5044023;28;20025;-52
2021/01/22 11:04:40;;;;;;;0.70;0.40;;;;;;;;;;5047601;28;20040;-52
2021/01/22 11:07:06;;;;;;;0.45;0.40;;;;;;;;;;5047833;28;20037;-49
2021/01/22 11:09:32;;;;;;;1.80;0.38;;;;;;;;;;5046147;28;20044;-52
2021/01/22 11:11:58;;;;;;;0.85;0.30;;;;;;;;;;5048351;28;20056;-50
2021/01/22 11:14:24;;;;;;;0.52;0.32;;;;;;;;;;5049145;28;20036;-53
2021/01/22 11:16:50;;;;;;;2.30;0.40;;;;;;;;;;5043127;28;20486;-51
2021/01/22 11:19:16;;;;;;;0.60;0.50;;;;;;;;;;5047343;28;20377;-55
2021/01/22 11:21:42;;;;;;;1.38;0.45;;;;;;;;;;5047906;28;20048;-54
2021/01/22 11:24:08;;;;;;;1.80;0.35;;;;;;;;;;5047968;28;20591;-52
2021/01/22 11:26:34;;;;;;;0.32;0.30;;;;;;;;;;5047129;28;20025;-50
2021/01/22 11:29:00;;;;;;;0.30;0.30;;;;;;;;;;5048327;28;20036;-54
2021/01/22 11:31:28;;;;;;;0.70;0.70;;;;;;;;;;5047655;28;20029;-53
2021/01/22 11:33:54;;;;;;;0.90;0.50;;;;;;;;;;5053439;28;20392;-52
2021/01/22 11:36:20;;;;;;;1.33;0.35;;;;;;;;;;5048580;28;20021;-54
2021/01/22 11:38:46;;;;;;;0.80;0.30;;;;;;;;;;5047422;28;20024;-55
2021/01/22 11:41:12;;;;;;;1.00;0.32;;;;;;;;;;5041781;28;20056;-51
2021/01/22 11:43:39;;;;;;;0.40;0.40;;;;;;;;;;5049050;28;20025;-52
2021/01/22 11:46:05;;;;;;;1.67;0.50;;;;;;;;;;5047583;28;20047;-51
2021/01/22 11:48:31;;;;;;;0.70;0.40;;;;;;;;;;5047889;28;20456;-51
2021/01/22 11:50:57;;;;;;;0.88;0.52;;;;;;;;;;5048223;28;20052;-53
2021/01/22 11:53:23;;;;;;;0.80;0.47;;;;;;;;;;5047909;28;20055;-55
2021/01/22 11:55:49;;;;;;;0.40;0.38;;;;;;;;;;5048231;28;20021;-53
2021/01/22 11:58:15;;;;;;;1.30;0.52;;;;;;;;;;5048803;28;20021;-50
2021/01/22 12:00:41;;;;;;;1.05;0.60;;;;;;;;;;5046415;28;20492;-49
2021/01/22 12:03:07;;;;;;;5.07;0.70;;;;;;;;;;5045740;28;20029;-52
2021/01/22 12:05:33;;;;;;;2.17;0.60;;;;;;;;;;5043681;28;20040;-53
2021/01/22 12:07:59;;;;;;;3.15;0.60;;;;;;;;;;5045735;28;20492;-53
2021/01/22 12:10:25;;;;;;;1.52;0.60;;;;;;;;;;5037151;28;20120;-51
2021/01/22 12:12:51;;;;;;;0.95;0.60;;;;;;;;;;5041706;28;20033;-50
2021/01/22 12:15:17;;;;;;;1.67;0.45;;;;;;;;;;5046307;28;20017;-55
2021/01/22 12:17:44;;;;;;;0.95;0.60;;;;;;;;;;5033011;28;20027;-53
2021/01/22 12:20:10;;;;;;;2.05;0.50;;;;;;;;;;5046085;28;20017;-51
2021/01/22 12:22:36;;;;;;;2.25;0.63;;;;;;;;;;5047229;28;20025;-55
2021/01/22 12:25:02;;;;;;;2.50;0.63;;;;;;;;;;5047583;28;20423;-50
2021/01/22 12:27:28;;;;;;;0.77;0.47;;;;;;;;;;5044753;28;20459;-48
2021/01/22 12:29:54;;;;;;;1.38;0.60;;;;;;;;;;5046727;28;20029;-52
2021/01/22 12:32:20;;;;;;;1.58;0.55;;;;;;;;;;5032898;28;20026;-50
2021/01/22 12:34:46;;;;;;;0.60;0.50;;;;;;;;;;5045736;28;20050;-51
2021/01/22 12:37:12;;;;;;;0.60;0.40;;;;;;;;;;5050368;28;20439;-53
2021/01/22 12:39:38;;;;;;;3.03;0.70;;;;;;;;;;5047995;28;20461;-50
2021/01/22 12:42:04;;;;;;;1.40;0.70;;;;;;;;;;5047105;28;20041;-49
2021/01/22 12:44:29;;;;;;;2.25;0.93;;;;;;;;;;5047835;28;20048;-54
2021/01/22 12:46:55;;;;;;;0.60;0.60;;;;;;;;;;5047578;28;20669;-55
2021/01/22 12:49:21;;;;;;;1.45;0.60;;;;;;;;;;5043002;28;20534;-54
2021/01/22 12:51:47;;;;;;;0.95;0.77;;;;;;;;;;5047420;28;20021;-52
2021/01/22 12:54:13;;;;;;;1.50;0.73;;;;;;;;;;5047310;28;20018;-52
2021/01/22 12:56:39;;;;;;;0.90;0.50;;;;;;;;;;5046724;28;20025;-53
2021/01/22 12:59:05;;;;;;;0.90;0.60;;;;;;;;;;5045946;28;20033;-54
2021/01/22 13:01:31;;;;;;;3.53;0.60;;;;;;;;;;5045083;28;20052;-55
2021/01/22 13:03:57;;;;;;;1.98;0.70;;;;;;;;;;5046703;28;20068;-51
2021/01/22 13:06:23;;;;;;;2.00;0.70;;;;;;;;;;5046977;28;20060;-49
2021/01/22 13:08:49;;;;;;;0.82;0.60;;;;;;;;;;5047933;28;20033;-54
2021/01/22 13:11:15;;;;;;;2.75;0.70;;;;;;;;;;5047897;28;20040;-52
2021/01/22 13:13:41;;;;;;;0.93;0.60;;;;;;;;;;5047037;28;20021;-54
2021/01/22 13:16:07;;;;;;;2.28;0.80;;;;;;;;;;5049528;28;20393;-54
2021/01/22 13:18:33;;;;;;;1.30;0.93;;;;;;;;;;5049376;28;20021;-53
2021/01/22 13:20:59;;;;;;;1.70;0.70;;;;;;;;;;5042208;28;20036;-51
2021/01/22 13:23:25;;;;;;;2.22;0.82;;;;;;;;;;5047299;28;20028;-54
2021/01/22 13:25:50;;;;;;;2.63;0.70;;;;;;;;;;5049187;28;20626;-52
2021/01/22 13:28:16;;;;;;;2.53;0.75;;;;;;;;;;5054896;28;20051;-49
2021/01/22 13:30:42;;;;;;;0.43;0.40;;;;;;;;;;5045912;28;20063;-52
2021/01/22 13:33:08;;;;;;;0.65;0.57;;;;;;;;;;5046535;28;20456;-52
2021/01/22 13:35:34;;;;;;;2.63;0.65;;;;;;;;;;5052601;28;20469;-50
2021/01/22 13:38:00;;;;;;;1.55;0.73;;;;;;;;;;5044864;28;20025;-53
2021/01/22 13:40:26;;;;;;;3.47;0.50;;;;;;;;;;5051493;28;20040;-52
2021/01/22 13:42:53;;;;;;;1.70;0.60;;;;;;;;;;5047941;28;20035;-54
2021/01/22 13:45:19;;;;;;;0.77;0.70;;;;;;;;;;5049311;28;20044;-50
2021/01/22 13:47:45;;;;;;;2.03;0.70;;;;;;;;;;5048931;28;20477;-55
2021/01/22 13:50:11;;;;;;;0.60;0.50;;;;;;;;;;5046395;28;20106;-52
2021/01/22 13:52:37;;;;;;;3.50;0.80;;;;;;;;;;5048300;28;20009;-54
2021/01/22 13:55:04;;;;;;;1.00;0.60;;;;;;;;;;5048859;28;20040;-53
2021/01/22 13:57:30;;;;;;;1.73;0.70;;;;;;;;;;5042940;28;20394;-51
2021/01/22 13:59:56;;;;;;;1.90;0.70;;;;;;;;;;5047072;28;20035;-51
2021/01/22 14:02:22;;;;;;;1.17;0.55;;;;;;;;;;5045166;28;20487;-51
2021/01/22 14:04:48;;;;;;;1.45;0.65;;;;;;;;;;5044109;28;20053;-49
2021/01/22 14:07:14;;;;;;;1.48;0.52;;;;;;;;;;5049354;28;20033;-54
2021/01/22 14:09:40;;;;;;;2.75;0.80;;;;;;;;;;5049379;28;20485;-48
2021/01/22 14:12:06;;;;;;;0.82;0.55;;;;;;;;;;5049540;28;20039;-51
2021/01/22 14:14:32;;;;;;;1.20;0.80;;;;;;;;;;5050006;28;20124;-49
2021/01/22 14:16:58;;;;;;;1.20;0.80;;;;;;;;;;5050268;28;20029;-54
2021/01/22 14:19:24;;;;;;;2.42;0.70;;;;;;;;;;5047337;28;20026;-50
2021/01/22 14:21:50;;;;;;;1.77;0.70;;;;;;;;;;5049037;28;20274;-52
2021/01/22 14:24:16;;;;;;;1.60;0.60;;;;;;;;;;5057619;28;20459;-52
2021/01/22 14:26:42;;;;;;;1.50;0.80;;;;;;;;;;5054162;28;20473;-49
2021/01/22 14:29:08;;;;;;;4.47;0.90;;;;;;;;;;5052409;28;20017;-53
2021/01/22 14:31:34;;;;;;;1.30;0.77;;;;;;;;;;5048487;28;20094;-51
2021/01/22 14:34:00;;;;;;;0.93;0.70;;;;;;;;;;5051950;28;20029;-55
2021/01/22 14:36:26;;;;;;;1.88;0.88;;;;;;;;;;5047513;28;20036;-48
2021/01/22 14:38:52;;;;;;;1.40;0.60;;;;;;;;;;5049273;28;20036;-53
2021/01/22 14:41:18;;;;;;;3.03;0.70;;;;;;;;;;5048590;28;20835;-51
2021/01/22 14:43:44;;;;;;;1.73;0.95;;;;;;;;;;5045576;28;20037;-51